createdAt,value
2017-12-04T00:00:31.261Z,11.05
2017-12-04T00:02:57.845Z,10.68
2017-12-04T00:05:24.638Z,10.70
2017-12-04T00:07:51.511Z,11.15
2017-12-04T00:10:18.306Z,11.50
2017-12-04T00:12:45.142Z,10.27
2017-12-04T00:15:11.956Z,10.38
2017-12-04T00:17:38.750Z,9.90
2017-12-04T00:20:05.570Z,9.95
2017-12-04T00:22:34.319Z,9.80
2017-12-04T00:25:01.115Z,9.68
2017-12-04T00:27:27.938Z,10.02
2017-12-04T00:29:54.780Z,8.98
2017-12-04T00:32:21.575Z,8.45
2017-12-04T00:34:48.397Z,8.70
2017-12-04T00:37:15.194Z,7.90
2017-12-04T00:39:41.981Z,8.65
2017-12-04T00:42:08.774Z,7.45
2017-12-04T00:44:35.578Z,8.90
2017-12-04T00:47:02.378Z,7.43
2017-12-04T00:49:29.177Z,7.07
2017-12-04T00:51:56.057Z,7.57
2017-12-04T00:54:22.865Z,6.97
2017-12-04T00:56:49.641Z,6.10
2017-12-04T00:59:16.480Z,5.90
2017-12-04T01:01:43.307Z,6.30
2017-12-04T01:04:10.355Z,5.15
2017-12-04T01:06:37.399Z,5.10
2017-12-04T01:09:04.209Z,4.55
2017-12-04T01:11:31.040Z,4.05
2017-12-04T01:13:57.846Z,3.80
2017-12-04T01:16:24.695Z,3.37
2017-12-04T01:18:51.482Z,2.80
2017-12-04T01:21:18.324Z,3.40
2017-12-04T01:23:45.139Z,3.37
2017-12-04T01:26:11.947Z,3.00
2017-12-04T01:28:39.090Z,3.30
2017-12-04T01:31:05.893Z,2.35
2017-12-04T01:33:32.715Z,2.37
2017-12-04T01:35:59.518Z,2.75
2017-12-04T01:38:26.566Z,3.45
2017-12-04T01:40:53.718Z,2.97
2017-12-04T01:43:20.560Z,2.90
2017-12-04T01:45:47.719Z,2.87
2017-12-04T01:48:14.527Z,2.70
2017-12-04T01:50:41.334Z,3.20
2017-12-04T01:53:08.148Z,3.67
2017-12-04T01:55:34.933Z,3.12
2017-12-04T01:58:01.779Z,3.10
2017-12-04T02:00:28.851Z,3.20
2017-12-04T02:02:56.028Z,3.75
2017-12-04T02:05:22.858Z,3.17
2017-12-04T02:07:50.020Z,3.10
2017-12-04T02:10:16.830Z,2.95
2017-12-04T02:12:43.658Z,2.67
2017-12-04T02:15:10.471Z,2.50
2017-12-04T02:17:37.299Z,2.87
2017-12-04T02:20:04.118Z,2.80
2017-12-04T02:22:31.283Z,2.90
2017-12-04T02:24:58.079Z,2.78
2017-12-04T02:27:24.918Z,2.50
2017-12-04T02:29:51.719Z,2.60
2017-12-04T02:32:18.551Z,2.70
2017-12-04T02:34:45.379Z,2.62
2017-12-04T02:37:12.162Z,2.67
2017-12-04T02:39:38.957Z,2.60
2017-12-04T02:42:05.771Z,2.42
2017-12-04T02:44:32.611Z,2.60
2017-12-04T02:46:59.425Z,2.28
2017-12-04T02:49:26.237Z,2.60
2017-12-04T02:51:53.057Z,2.50
2017-12-04T02:54:19.879Z,2.30
2017-12-04T02:56:46.722Z,2.53
2017-12-04T02:59:13.556Z,2.43
2017-12-04T03:01:40.671Z,2.53
2017-12-04T03:04:07.498Z,1.93
2017-12-04T03:06:34.297Z,2.30
2017-12-04T03:09:01.204Z,2.47
2017-12-04T03:11:28.051Z,2.22
2017-12-04T03:13:54.859Z,2.67
2017-12-04T03:16:21.650Z,2.20
2017-12-04T03:18:48.471Z,2.42
2017-12-04T03:21:15.315Z,2.40
2017-12-04T03:23:42.167Z,2.65
2017-12-04T03:26:09.002Z,2.60
2017-12-04T03:28:35.867Z,2.20
2017-12-04T03:31:02.719Z,2.30
2017-12-04T03:33:29.575Z,2.05
2017-12-04T03:35:56.396Z,2.80
2017-12-04T03:38:23.205Z,2.50
2017-12-04T03:40:50.079Z,2.30
2017-12-04T03:43:16.903Z,2.12
2017-12-04T03:45:43.744Z,2.70
2017-12-04T03:48:10.591Z,2.22
2017-12-04T03:50:37.399Z,2.80
2017-12-04T03:53:04.480Z,2.30
2017-12-04T03:55:31.522Z,2.30
2017-12-04T03:57:58.335Z,2.40
2017-12-04T04:00:25.113Z,2.92
2017-12-04T04:02:51.955Z,2.60
2017-12-04T04:05:18.758Z,3.00
2017-12-04T04:07:45.604Z,2.40
2017-12-04T04:10:12.426Z,2.92
2017-12-04T04:12:39.205Z,2.53
2017-12-04T04:15:05.997Z,2.45
2017-12-04T04:17:32.798Z,2.60
2017-12-04T04:19:59.615Z,2.63
2017-12-04T04:22:26.398Z,2.72
2017-12-04T04:24:53.269Z,2.00
2017-12-04T04:27:20.112Z,2.37
2017-12-04T04:29:47.159Z,2.55
2017-12-04T04:32:13.971Z,2.55
2017-12-04T04:34:40.794Z,2.37
2017-12-04T04:37:07.607Z,2.78
2017-12-04T04:39:34.460Z,2.62
2017-12-04T04:42:01.250Z,3.10
2017-12-04T04:44:28.049Z,2.47
2017-12-04T04:46:54.886Z,2.28
2017-12-04T04:49:21.880Z,2.62
2017-12-04T04:51:48.669Z,2.67
2017-12-04T04:54:15.551Z,2.30
2017-12-04T04:56:42.372Z,2.42
2017-12-04T04:59:09.187Z,2.22
2017-12-04T05:01:35.998Z,2.20
2017-12-04T05:04:02.823Z,2.95
2017-12-04T05:06:29.619Z,2.72
2017-12-04T05:08:56.463Z,2.70
2017-12-04T05:11:23.247Z,2.50
2017-12-04T05:13:50.052Z,2.50
2017-12-04T05:16:16.912Z,2.33
2017-12-04T05:18:43.716Z,2.60
2017-12-04T05:21:10.531Z,3.33
2017-12-04T05:23:37.343Z,2.75
2017-12-04T05:26:04.138Z,3.00
2017-12-04T05:28:30.959Z,2.72
2017-12-04T05:30:57.762Z,2.50
2017-12-04T05:33:24.590Z,2.67
2017-12-04T05:35:51.410Z,2.20
2017-12-04T05:38:18.226Z,2.72
2017-12-04T05:40:45.048Z,2.30
2017-12-04T05:43:11.883Z,2.37
2017-12-04T05:45:38.694Z,2.12
2017-12-04T05:48:05.799Z,2.30
2017-12-04T05:50:32.630Z,2.67
2017-12-04T05:52:59.433Z,2.37
2017-12-04T05:55:26.229Z,2.37
2017-12-04T05:57:53.030Z,4.15
2017-12-04T06:00:20.224Z,3.10
2017-12-04T06:02:47.010Z,2.15
2017-12-04T06:05:13.835Z,2.20
2017-12-04T06:07:40.642Z,1.87
2017-12-04T06:10:07.471Z,2.30
2017-12-04T06:12:34.304Z,2.00
2017-12-04T06:15:01.128Z,2.12
2017-12-04T06:17:27.918Z,2.50
2017-12-04T06:19:54.709Z,2.10
2017-12-04T06:22:21.527Z,2.53
2017-12-04T06:24:48.383Z,2.27
2017-12-04T06:27:15.162Z,2.45
2017-12-04T06:29:41.990Z,3.08
2017-12-04T06:32:08.815Z,2.45
2017-12-04T06:34:35.633Z,2.60
2017-12-04T06:37:02.492Z,2.60
2017-12-04T06:39:29.322Z,2.67
2017-12-04T06:41:56.113Z,2.17
2017-12-04T06:44:22.909Z,2.28
2017-12-04T06:46:49.698Z,2.75
2017-12-04T06:49:16.532Z,3.58
2017-12-04T06:51:43.355Z,3.00
2017-12-04T06:54:10.169Z,2.40
2017-12-04T06:56:36.989Z,2.70
2017-12-04T06:59:03.801Z,2.42
2017-12-04T07:01:30.627Z,2.28
2017-12-04T07:03:57.404Z,2.90
2017-12-04T07:06:24.648Z,3.62
2017-12-04T07:08:51.422Z,3.05
2017-12-04T07:11:18.214Z,2.40
2017-12-04T07:13:45.026Z,3.00
2017-12-04T07:16:11.824Z,2.33
2017-12-04T07:18:38.675Z,2.37
2017-12-04T07:21:05.508Z,3.00
2017-12-04T07:23:32.251Z,2.50
2017-12-04T07:25:59.317Z,3.47
2017-12-04T07:28:26.114Z,2.53
2017-12-04T07:30:52.929Z,2.30
2017-12-04T07:33:19.721Z,2.00
2017-12-04T07:35:46.526Z,2.70
2017-12-04T07:38:13.407Z,2.25
2017-12-04T07:40:40.478Z,3.00
2017-12-04T07:43:07.386Z,2.78
2017-12-04T07:45:34.208Z,2.90
2017-12-04T07:48:01.001Z,2.00
2017-12-04T07:50:27.835Z,2.37
2017-12-04T07:52:54.907Z,2.40
2017-12-04T07:55:21.709Z,2.10
2017-12-04T07:57:48.527Z,2.72
2017-12-04T08:00:15.335Z,2.50
2017-12-04T08:02:42.126Z,2.53
2017-12-04T08:05:08.959Z,2.95
2017-12-04T08:07:35.774Z,3.70
2017-12-04T08:10:02.623Z,3.40
2017-12-04T08:12:29.402Z,5.40
2017-12-04T08:14:56.215Z,2.62
2017-12-04T08:17:23.015Z,2.55
2017-12-04T08:19:49.855Z,2.40
2017-12-04T08:22:16.916Z,2.30
2017-12-04T08:24:43.744Z,3.00
2017-12-04T08:27:10.571Z,2.60
2017-12-04T08:29:37.349Z,3.10
2017-12-04T08:32:04.200Z,3.10
2017-12-04T08:34:30.982Z,2.10
2017-12-04T08:36:57.811Z,2.70
2017-12-04T08:39:24.928Z,3.87
2017-12-04T08:41:52.018Z,4.03
2017-12-04T08:44:19.014Z,2.50
2017-12-04T08:46:45.834Z,2.45
2017-12-04T08:49:12.618Z,2.33
2017-12-04T08:51:39.459Z,2.58
2017-12-04T08:54:06.246Z,2.20
2017-12-04T08:56:33.050Z,2.58
2017-12-04T08:58:59.845Z,2.20
2017-12-04T09:01:26.634Z,1.98
2017-12-04T09:03:53.459Z,2.22
2017-12-04T09:06:20.280Z,2.28
2017-12-04T09:08:47.346Z,2.40
2017-12-04T09:11:14.142Z,2.40
2017-12-04T09:13:41.012Z,2.78
2017-12-04T09:16:07.848Z,2.28
2017-12-04T09:18:34.634Z,2.45
2017-12-04T09:21:01.469Z,3.10
2017-12-04T09:23:28.282Z,2.30
2017-12-04T09:25:55.127Z,2.30
2017-12-04T09:28:21.918Z,2.50
2017-12-04T09:30:48.823Z,2.30
2017-12-04T09:33:15.694Z,4.35
2017-12-04T09:35:42.495Z,3.50
2017-12-04T09:38:09.318Z,2.67
2017-12-04T09:40:36.141Z,3.50
2017-12-04T09:43:02.971Z,5.55
2017-12-04T09:45:29.777Z,2.77
2017-12-04T09:47:56.669Z,2.97
2017-12-04T09:50:23.512Z,3.47
2017-12-04T09:52:50.541Z,2.70
2017-12-04T09:55:17.375Z,2.10
2017-12-04T09:57:44.225Z,2.30
2017-12-04T10:00:11.047Z,2.30
2017-12-04T10:02:37.928Z,2.70
2017-12-04T10:05:04.783Z,2.40
2017-12-04T10:07:31.591Z,2.72
2017-12-04T10:09:58.730Z,2.70
2017-12-04T10:12:25.548Z,2.90
2017-12-04T10:14:52.422Z,2.70
2017-12-04T10:17:19.217Z,2.40
2017-12-04T10:19:45.998Z,6.20
2017-12-04T10:22:12.867Z,2.60
2017-12-04T10:24:39.993Z,2.90
2017-12-04T10:27:06.900Z,2.35
2017-12-04T10:29:33.719Z,2.80
2017-12-04T10:32:00.554Z,2.65
2017-12-04T10:34:27.362Z,2.10
2017-12-04T10:36:54.192Z,2.70
2017-12-04T10:39:21.032Z,4.30
2017-12-04T10:41:47.858Z,2.90
2017-12-04T10:44:14.671Z,2.90
2017-12-04T10:46:41.786Z,2.15
2017-12-04T10:49:08.612Z,2.55
2017-12-04T10:51:35.784Z,2.60
2017-12-04T10:54:02.620Z,2.40
2017-12-04T10:56:29.393Z,2.80
2017-12-04T10:58:56.199Z,2.50
2017-12-04T11:01:22.987Z,2.28
2017-12-04T11:03:49.868Z,2.35
2017-12-04T11:06:16.657Z,2.37
2017-12-04T11:08:43.489Z,2.58
2017-12-04T11:11:10.332Z,2.90
2017-12-04T11:13:37.156Z,2.17
2017-12-04T11:16:03.935Z,4.40
2017-12-04T11:18:30.777Z,2.20
2017-12-04T11:20:57.611Z,2.20
2017-12-04T11:23:24.543Z,2.10
2017-12-04T11:25:51.686Z,2.10
2017-12-04T11:28:18.536Z,2.00
2017-12-04T11:30:45.283Z,2.17
2017-12-04T11:33:12.112Z,2.10
2017-12-04T11:35:38.936Z,2.00
2017-12-04T11:38:05.746Z,2.00
2017-12-04T11:40:32.580Z,1.87
2017-12-04T11:42:59.361Z,2.00
2017-12-04T11:45:26.434Z,2.25
2017-12-04T11:47:53.235Z,1.73
2017-12-04T11:50:20.030Z,2.20
2017-12-04T11:52:46.826Z,2.60
2017-12-04T11:55:13.626Z,2.55
2017-12-04T11:57:40.455Z,2.10
2017-12-04T12:00:07.489Z,1.95
2017-12-04T12:02:34.358Z,2.30
2017-12-04T12:05:01.173Z,2.08
2017-12-04T12:07:27.992Z,1.92
2017-12-04T12:09:54.793Z,2.03
2017-12-04T12:12:21.623Z,2.20
2017-12-04T12:14:48.430Z,1.80
2017-12-04T12:17:15.508Z,2.00
2017-12-04T12:19:42.323Z,1.92
2017-12-04T12:22:09.102Z,2.00
2017-12-04T12:24:35.927Z,2.37
2017-12-04T12:27:03.080Z,2.10
2017-12-04T12:29:29.893Z,2.58
2017-12-04T12:31:56.693Z,2.10
2017-12-04T12:34:23.486Z,2.08
2017-12-04T12:36:50.351Z,2.15
2017-12-04T12:39:17.173Z,2.50
2017-12-04T12:41:44.234Z,2.15
2017-12-04T12:44:11.046Z,1.95
2017-12-04T12:46:37.842Z,1.92
2017-12-04T12:49:04.670Z,2.47
2017-12-04T12:51:31.512Z,2.00
2017-12-04T12:53:58.324Z,1.77
2017-12-04T12:56:25.164Z,1.80
2017-12-04T12:58:51.950Z,1.70
2017-12-04T13:01:18.737Z,1.85
2017-12-04T13:03:45.575Z,2.40
2017-12-04T13:06:12.378Z,1.90
2017-12-04T13:08:39.218Z,2.10
2017-12-04T13:11:06.010Z,2.08
2017-12-04T13:13:32.827Z,2.00
2017-12-04T13:15:59.655Z,1.87
2017-12-04T13:18:26.492Z,1.87
2017-12-04T13:20:53.330Z,2.20
2017-12-04T13:23:20.143Z,2.50
2017-12-04T13:25:46.930Z,2.30
2017-12-04T13:28:13.730Z,2.15
2017-12-04T13:30:40.555Z,1.90
2017-12-04T13:33:13.477Z,2.75
2017-12-04T13:35:46.306Z,2.90
2017-12-04T13:38:13.121Z,2.17
2017-12-04T13:40:39.939Z,2.20
2017-12-04T13:43:06.752Z,1.83
2017-12-04T13:45:33.542Z,2.00
2017-12-04T13:48:00.383Z,2.20
2017-12-04T13:50:27.194Z,2.60
2017-12-04T13:52:54.010Z,2.60
2017-12-04T13:55:20.794Z,2.30
2017-12-04T13:57:47.617Z,2.58
2017-12-04T14:00:14.411Z,1.80
2017-12-04T14:02:41.259Z,2.40
2017-12-04T14:05:08.038Z,2.20
2017-12-04T14:07:34.846Z,2.12
2017-12-04T14:10:01.646Z,2.50
2017-12-04T14:12:28.474Z,2.20
2017-12-04T14:14:55.320Z,2.75
2017-12-04T14:17:22.114Z,2.30
2017-12-04T14:19:48.894Z,2.00
2017-12-04T14:22:15.732Z,2.20
2017-12-04T14:24:42.506Z,1.87
2017-12-04T14:27:09.306Z,2.30
2017-12-04T14:29:36.101Z,2.00
2017-12-04T14:32:02.888Z,2.80
2017-12-04T14:34:29.722Z,8.57
2017-12-04T14:36:56.550Z,4.07
2017-12-04T14:39:23.362Z,3.03
2017-12-04T14:41:50.175Z,1.95
2017-12-04T14:44:16.949Z,2.30
2017-12-04T14:46:43.772Z,3.00
2017-12-04T14:49:10.830Z,2.97
2017-12-04T14:51:37.651Z,2.27
2017-12-04T14:54:04.483Z,2.20
2017-12-04T14:56:31.331Z,2.50
2017-12-04T14:58:58.175Z,2.20
2017-12-04T15:01:24.970Z,2.30
2017-12-04T15:03:51.814Z,4.37
2017-12-04T15:06:18.654Z,5.47
2017-12-04T15:08:45.476Z,3.62
2017-12-04T15:11:12.360Z,2.50
2017-12-04T15:13:39.194Z,2.20
2017-12-04T15:16:05.993Z,2.80
2017-12-04T15:18:32.854Z,3.35
2017-12-04T15:20:59.673Z,3.10
2017-12-04T15:23:26.507Z,2.30
2017-12-04T15:25:53.314Z,2.10
2017-12-04T15:28:20.098Z,2.60
2017-12-04T15:30:46.947Z,2.45
2017-12-04T15:33:13.738Z,2.90
2017-12-04T15:35:40.611Z,2.05
2017-12-04T15:38:07.443Z,2.47
2017-12-04T15:40:34.276Z,2.00
2017-12-04T15:43:01.094Z,2.20
2017-12-04T15:45:27.906Z,2.53
2017-12-04T15:47:54.765Z,1.90
2017-12-04T15:50:21.570Z,2.28
2017-12-04T15:52:48.416Z,2.30
2017-12-04T15:55:15.244Z,2.40
2017-12-04T15:57:42.078Z,2.25
2017-12-04T16:00:08.924Z,2.20
2017-12-04T16:02:35.784Z,2.20
2017-12-04T16:05:02.603Z,2.37
2017-12-04T16:07:29.715Z,2.03
2017-12-04T16:09:56.515Z,2.30
2017-12-04T16:12:23.600Z,2.28
2017-12-04T16:14:50.434Z,2.28
2017-12-04T16:17:17.238Z,2.22
2017-12-04T16:19:44.058Z,2.60
2017-12-04T16:22:10.854Z,2.80
2017-12-04T16:24:37.675Z,2.30
2017-12-04T16:27:04.461Z,2.20
2017-12-04T16:29:31.613Z,2.10
2017-12-04T16:31:58.460Z,2.30
2017-12-04T16:34:25.273Z,2.12
2017-12-04T16:36:52.090Z,2.03
2017-12-04T16:39:18.879Z,1.98
2017-12-04T16:41:45.679Z,2.20
2017-12-04T16:44:12.517Z,5.07
2017-12-04T16:46:39.301Z,3.43
2017-12-04T16:49:06.134Z,1.90
2017-12-04T16:51:32.951Z,2.00
2017-12-04T16:53:59.769Z,2.62
2017-12-04T16:56:26.578Z,2.03
2017-12-04T16:58:53.372Z,2.17
2017-12-04T17:01:20.187Z,2.17
2017-12-04T17:03:47.032Z,2.00
2017-12-04T17:06:14.150Z,1.73
2017-12-04T17:08:41.022Z,1.55
2017-12-04T17:11:07.834Z,2.30
2017-12-04T17:13:34.646Z,2.00
2017-12-04T17:16:01.442Z,1.80
2017-12-04T17:18:28.275Z,2.20
2017-12-04T17:20:55.120Z,2.00
2017-12-04T17:23:21.924Z,2.20
2017-12-04T17:25:48.779Z,1.83
2017-12-04T17:28:15.845Z,2.12
2017-12-04T17:30:42.652Z,2.20
2017-12-04T17:33:09.445Z,2.53
2017-12-04T17:35:36.263Z,2.20
2017-12-04T17:38:03.119Z,2.28
2017-12-04T17:40:29.941Z,1.90
2017-12-04T17:42:56.743Z,2.50
2017-12-04T17:45:23.592Z,2.10
2017-12-04T17:47:50.374Z,2.30
2017-12-04T17:50:17.225Z,2.55
2017-12-04T17:52:44.383Z,2.33
2017-12-04T17:55:11.219Z,2.37
2017-12-04T17:57:38.019Z,2.08
2017-12-04T18:00:04.818Z,3.12
2017-12-04T18:02:31.661Z,4.10
2017-12-04T18:04:58.466Z,4.47
2017-12-04T18:07:25.277Z,2.30
2017-12-04T18:09:52.090Z,2.20
2017-12-04T18:12:18.935Z,2.40
2017-12-04T18:14:45.758Z,3.07
2017-12-04T18:17:12.578Z,2.70
2017-12-04T18:19:39.378Z,2.58
2017-12-04T18:22:06.255Z,2.67
2017-12-04T18:24:33.078Z,2.85
2017-12-04T18:27:00.190Z,2.62
2017-12-04T18:29:27.023Z,2.30
2017-12-04T18:31:53.855Z,2.10
2017-12-04T18:34:20.678Z,2.70
2017-12-04T18:36:47.506Z,3.12
2017-12-04T18:39:14.326Z,3.05
2017-12-04T18:41:41.188Z,2.75
2017-12-04T18:44:08.026Z,3.00
2017-12-04T18:46:34.849Z,2.03
2017-12-04T18:49:01.704Z,2.50
2017-12-04T18:51:28.526Z,2.00
2017-12-04T18:53:55.363Z,2.17
2017-12-04T18:56:22.199Z,2.30
2017-12-04T18:58:49.040Z,2.00
2017-12-04T19:01:15.817Z,7.50
2017-12-04T19:03:42.657Z,8.13
2017-12-04T19:06:09.495Z,2.62
2017-12-04T19:08:36.339Z,2.05
2017-12-04T19:11:03.184Z,2.80
2017-12-04T19:13:30.020Z,2.60
2017-12-04T19:15:56.846Z,2.50
2017-12-04T19:18:23.691Z,2.63
2017-12-04T19:20:50.529Z,2.80
2017-12-04T19:23:17.367Z,2.12
2017-12-04T19:25:44.203Z,2.30
2017-12-04T19:28:11.057Z,2.08
2017-12-04T19:30:37.875Z,2.03
2017-12-04T19:33:05.558Z,2.10
2017-12-04T19:35:32.390Z,2.30
2017-12-04T19:37:59.193Z,5.10
2017-12-04T19:40:26.064Z,2.70
2017-12-04T19:42:52.873Z,2.70
2017-12-04T19:45:19.726Z,2.00
2017-12-04T19:47:46.562Z,2.67
2017-12-04T19:50:13.400Z,2.60
2017-12-04T19:52:40.256Z,2.50
2017-12-04T19:55:07.357Z,2.10
2017-12-04T19:57:34.202Z,2.30
2017-12-04T20:00:01.043Z,2.80
2017-12-04T20:02:27.879Z,2.70
2017-12-04T20:04:54.719Z,2.10
2017-12-04T20:07:21.510Z,2.60
2017-12-04T20:09:48.330Z,3.00
2017-12-04T20:12:15.163Z,2.50
2017-12-04T20:14:41.999Z,2.30
2017-12-04T20:17:08.859Z,2.30
2017-12-04T20:19:35.638Z,2.30
2017-12-04T20:22:02.496Z,2.95
2017-12-04T20:24:29.582Z,2.40
2017-12-04T20:26:56.389Z,2.83
2017-12-04T20:29:23.567Z,2.45
2017-12-04T20:31:50.374Z,2.17
2017-12-04T20:34:17.207Z,5.33
2017-12-04T20:36:44.063Z,3.13
2017-12-04T20:39:10.850Z,2.30
2017-12-04T20:41:37.734Z,2.70
2017-12-04T20:44:04.530Z,1.87
2017-12-04T20:46:31.383Z,2.05
2017-12-04T20:48:58.515Z,2.10
2017-12-04T20:51:25.363Z,2.43
2017-12-04T20:53:52.178Z,2.22
2017-12-04T20:56:19.023Z,2.60
2017-12-04T20:58:46.092Z,2.62
2017-12-04T21:01:13.251Z,2.27
2017-12-04T21:03:40.099Z,4.10
2017-12-04T21:06:06.957Z,8.23
2017-12-04T21:08:39.737Z,4.18
2017-12-04T21:11:12.454Z,2.20
2017-12-04T21:13:45.348Z,2.40
2017-12-04T21:16:25.090Z,2.37
2017-12-04T21:18:51.926Z,2.80
2017-12-04T21:21:19.019Z,3.33
2017-12-04T21:23:45.883Z,10.02
2017-12-04T21:26:12.726Z,2.90
2017-12-04T21:28:39.535Z,2.40
2017-12-04T21:31:06.365Z,2.80
2017-12-04T21:33:33.190Z,2.33
2017-12-04T21:36:00.284Z,4.95
2017-12-04T21:38:27.081Z,3.00
2017-12-04T21:40:53.906Z,2.20
2017-12-04T21:43:20.738Z,2.17
2017-12-04T21:45:47.608Z,2.42
2017-12-04T21:48:14.418Z,2.30
2017-12-04T21:50:41.542Z,2.78
2017-12-04T21:53:08.402Z,2.15
2017-12-04T21:55:35.274Z,3.10
2017-12-04T21:58:02.134Z,2.40
2017-12-04T22:00:28.967Z,2.60
2017-12-04T22:02:55.811Z,3.03
2017-12-04T22:05:22.629Z,2.42
2017-12-04T22:07:49.484Z,2.80
2017-12-04T22:10:16.315Z,2.70
2017-12-04T22:12:43.129Z,14.23
2017-12-04T22:15:09.997Z,3.72
2017-12-04T22:17:36.855Z,4.20
2017-12-04T22:20:03.674Z,3.42
2017-12-04T22:22:30.498Z,3.10
2017-12-04T22:24:57.355Z,3.70
2017-12-04T22:27:24.271Z,5.50
2017-12-04T22:29:51.111Z,3.20
2017-12-04T22:32:17.934Z,3.60
2017-12-04T22:34:44.787Z,2.80
2017-12-04T22:37:11.647Z,3.03
2017-12-04T22:39:38.476Z,3.10
2017-12-04T22:42:05.339Z,3.47
2017-12-04T22:44:32.151Z,3.20
2017-12-04T22:46:59.019Z,3.35
2017-12-04T22:49:25.863Z,2.92
2017-12-04T22:51:52.700Z,2.90
2017-12-04T22:54:19.890Z,3.78
2017-12-04T22:56:46.713Z,4.07
2017-12-04T22:59:13.539Z,4.07
2017-12-04T23:01:40.606Z,4.03
2017-12-04T23:04:07.439Z,4.03
2017-12-04T23:06:34.289Z,4.90
2017-12-04T23:09:01.086Z,4.70
2017-12-04T23:11:27.890Z,5.27
2017-12-04T23:13:54.747Z,6.10
2017-12-04T23:16:21.546Z,6.10
2017-12-04T23:18:48.355Z,5.78
2017-12-04T23:21:15.223Z,5.90
2017-12-04T23:23:42.063Z,5.75
2017-12-04T23:26:08.887Z,6.50
2017-12-04T23:28:35.735Z,6.60
2017-12-04T23:31:02.550Z,8.60
2017-12-04T23:33:29.390Z,9.00
2017-12-04T23:35:56.260Z,9.55
2017-12-04T23:38:23.053Z,9.70
2017-12-04T23:40:49.921Z,10.20
2017-12-04T23:43:16.742Z,10.00
2017-12-04T23:45:43.560Z,12.43
2017-12-04T23:48:10.407Z,12.10
2017-12-04T23:50:37.264Z,12.15
2017-12-04T23:53:04.065Z,14.00
2017-12-04T23:55:30.937Z,13.68
2017-12-04T23:57:57.726Z,14.25
